Time;durP1;ratioP1;P1;durP2;ratioP2;P2;SDS_P1;SDS_P2;PMS_P1;PMS_P2;Temp;Humidity;BMP_temperature;BMP_pressure;BME280_temperature;BME280_humidity;BME280_pressure;Samples;Min_cycle;Max_cycle;Signal;HPM_P1;HPM_P2
2023/03/23 00:01:09;;;;;;;12.38;7.78;;;11.40;99.90;;;;;;5007501;28;20121;-74
2023/03/23 00:03:39;;;;;;;13.38;7.95;;;11.30;99.90;;;;;;5004607;28;20034;-77
2023/03/23 00:06:06;;;;;;;12.88;8.05;;;11.20;99.90;;;;;;5002278;28;20038;-78
2023/03/23 00:08:45;;;;;;;11.75;8.13;;;11.20;99.90;;;;;;5002913;28;20097;-77
2023/03/23 00:11:18;;;;;;;14.55;8.70;;;11.10;99.90;;;;;;5006447;28;20057;-78
2023/03/23 00:13:45;;;;;;;15.00;9.68;;;11.00;99.90;;;;;;5033899;28;20022;-77
2023/03/23 00:16:18;;;;;;;12.85;9.02;;;11.00;99.90;;;;;;5004900;28;20088;-77
2023/03/23 00:18:52;;;;;;;13.43;8.68;;;11.00;99.90;;;;;;5034914;28;20061;-77
2023/03/23 00:21:19;;;;;;;14.88;9.85;;;11.00;99.90;;;;;;5006095;28;20049;-77
2023/03/23 00:23:44;;;;;;;15.38;10.35;;;10.90;99.90;;;;;;5004152;28;20030;-77
2023/03/23 00:26:11;;;;;;;17.15;11.27;;;10.90;99.90;;;;;;4988677;28;20127;-78
2023/03/23 00:28:38;;;;;;;16.73;10.23;;;10.90;99.90;;;;;;4989670;28;20072;-77
2023/03/23 00:31:07;;;;;;;15.23;10.57;;;10.90;99.90;;;;;;5008453;28;20030;-78
2023/03/23 00:33:40;;;;;;;17.33;11.00;;;10.90;99.90;;;;;;5007142;28;20021;-75
2023/03/23 00:36:11;;;;;;;16.65;12.10;;;10.90;99.90;;;;;;5004220;28;20061;-75
2023/03/23 00:38:38;;;;;;;18.40;12.32;;;10.90;99.90;;;;;;5010634;28;20033;-78
2023/03/23 00:41:05;;;;;;;17.95;12.80;;;10.90;99.90;;;;;;4990002;28;20026;-78
2023/03/23 00:43:31;;;;;;;17.17;13.00;;;10.80;99.90;;;;;;5004898;28;20033;-75
2023/03/23 00:46:00;;;;;;;17.90;13.02;;;10.80;99.90;;;;;;5039869;28;20022;-78
2023/03/23 00:48:28;;;;;;;15.90;12.45;;;10.80;99.90;;;;;;5021807;28;20112;-75
2023/03/23 00:50:55;;;;;;;19.23;12.50;;;10.80;99.90;;;;;;5013181;28;20034;-75
2023/03/23 00:53:22;;;;;;;19.02;11.88;;;10.80;99.90;;;;;;5005766;28;20042;-75
2023/03/23 00:55:48;;;;;;;17.77;12.63;;;10.80;99.90;;;;;;5009035;28;20113;-75
2023/03/23 00:58:15;;;;;;;15.20;11.45;;;10.80;99.90;;;;;;5010371;28;20067;-78
2023/03/23 01:00:42;;;;;;;16.23;12.48;;;10.80;99.90;;;;;;5008641;28;20077;-77
2023/03/23 01:03:11;;;;;;;15.38;11.57;;;10.80;99.90;;;;;;5009476;28;20421;-76
2023/03/23 01:05:39;;;;;;;16.13;11.95;;;10.80;99.90;;;;;;5021115;28;20104;-77
2023/03/23 01:08:06;;;;;;;16.15;11.95;;;10.80;99.90;;;;;;5009676;28;20489;-75
2023/03/23 01:10:32;;;;;;;15.63;11.65;;;10.80;99.90;;;;;;5007829;28;20034;-80
2023/03/23 01:13:01;;;;;;;16.20;12.07;;;10.80;99.90;;;;;;5008987;28;20057;-76
2023/03/23 01:15:29;;;;;;;18.13;12.18;;;10.80;99.90;;;;;;5009086;28;20661;-75
2023/03/23 01:17:55;;;;;;;14.90;11.57;;;10.80;99.90;;;;;;5007780;28;20410;-77
2023/03/23 01:20:21;;;;;;;14.02;10.93;;;10.80;99.90;;;;;;5009012;28;20042;-77
2023/03/23 01:22:47;;;;;;;17.27;11.40;;;10.80;99.90;;;;;;5010753;28;20088;-76
2023/03/23 01:25:13;;;;;;;17.02;11.63;;;10.80;99.90;;;;;;4991800;28;20109;-77
2023/03/23 01:27:40;;;;;;;15.93;11.45;;;10.80;99.90;;;;;;5007719;28;20041;-78
2023/03/23 01:30:07;;;;;;;16.00;11.32;;;10.80;99.90;;;;;;5007281;28;20034;-75
2023/03/23 01:32:34;;;;;;;17.38;12.73;;;10.80;99.90;;;;;;5008878;28;20057;-75
2023/03/23 01:35:00;;;;;;;15.82;11.80;;;10.80;99.90;;;;;;5010064;28;20068;-76
2023/03/23 01:37:26;;;;;;;20.42;14.45;;;10.80;99.90;;;;;;5009062;28;20462;-75
2023/03/23 01:39:53;;;;;;;19.92;13.32;;;10.80;99.90;;;;;;5012210;28;20029;-77
2023/03/23 01:42:25;;;;;;;16.75;12.73;;;10.80;99.90;;;;;;5010525;28;20025;-75
2023/03/23 01:44:51;;;;;;;15.80;12.43;;;10.80;99.90;;;;;;4991016;28;20022;-76
2023/03/23 01:47:23;;;;;;;20.95;14.68;;;10.80;99.90;;;;;;4991961;28;20394;-77
2023/03/23 01:49:50;;;;;;;19.83;14.18;;;10.80;99.90;;;;;;5018808;28;20355;-77
2023/03/23 01:52:23;;;;;;;21.17;14.98;;;10.70;99.90;;;;;;5009387;28;20045;-75
2023/03/23 01:54:52;;;;;;;21.05;14.90;;;10.70;99.90;;;;;;5004240;28;20022;-77
2023/03/23 01:57:21;;;;;;;23.20;15.35;;;10.70;99.90;;;;;;5005539;28;20041;-78
2023/03/23 01:59:51;;;;;;;20.25;15.25;;;10.70;99.90;;;;;;5008242;28;20018;-75
2023/03/23 02:02:17;;;;;;;20.45;15.10;;;10.60;99.90;;;;;;5007974;28;20033;-75
2023/03/23 02:04:44;;;;;;;22.70;15.07;;;10.70;99.90;;;;;;5005565;28;20029;-75
2023/03/23 02:07:12;;;;;;;21.35;14.75;;;10.70;99.90;;;;;;5006738;28;20065;-76
2023/03/23 02:09:37;;;;;;;19.52;14.50;;;10.70;99.90;;;;;;5000555;28;20069;-75
2023/03/23 02:12:03;;;;;;;20.95;13.55;;;10.70;99.90;;;;;;4987601;28;20117;-76
2023/03/23 02:14:31;;;;;;;27.05;15.40;;;10.70;99.90;;;;;;5007229;28;20022;-77
2023/03/23 02:17:22;;;;;;;21.02;14.32;;;10.70;99.90;;;;;;4994581;28;20029;-78
2023/03/23 02:20:09;;;;;;;21.90;15.35;;;10.60;99.90;;;;;;5013776;28;20456;-75
2023/03/23 02:22:50;;;;;;;22.20;15.13;;;10.60;99.90;;;;;;5012461;28;20406;-75
2023/03/23 02:25:46;;;;;;;24.65;14.63;;;10.60;99.90;;;;;;5007846;28;20049;-78
2023/03/23 02:28:36;;;;;;;21.98;15.68;;;10.60;99.90;;;;;;5022693;28;20046;-77
2023/03/23 02:31:38;;;;;;;23.92;15.73;;;10.60;99.90;;;;;;5008189;28;20092;-77
2023/03/23 02:34:17;;;;;;;23.30;15.88;;;10.60;99.90;;;;;;5004678;28;20049;-78
2023/03/23 02:36:55;;;;;;;23.55;16.50;;;10.60;99.90;;;;;;5011015;28;20026;-77
2023/03/23 02:39:43;;;;;;;27.08;15.75;;;10.60;99.90;;;;;;5007578;28;20042;-78
2023/03/23 02:42:11;;;;;;;24.85;16.60;;;10.60;99.90;;;;;;5007824;28;20030;-77
2023/03/23 02:44:40;;;;;;;25.63;16.65;;;10.60;99.90;;;;;;5008504;28;20038;-76
2023/03/23 02:47:12;;;;;;;22.33;16.35;;;10.60;99.90;;;;;;5005569;28;20033;-74
2023/03/23 02:49:41;;;;;;;23.40;16.25;;;10.60;99.90;;;;;;5005565;28;20113;-75
2023/03/23 02:52:18;;;;;;;24.40;15.45;;;10.60;99.90;;;;;;5002346;28;20037;-77
2023/03/23 02:54:47;;;;;;;22.48;16.08;;;10.60;99.90;;;;;;5004532;28;20032;-77
2023/03/23 02:57:13;;;;;;;21.95;16.30;;;10.60;99.90;;;;;;5008009;28;20049;-81
2023/03/23 02:59:39;;;;;;;21.88;14.90;;;10.60;99.90;;;;;;4992229;28;20076;-76
2023/03/23 03:02:08;;;;;;;24.63;16.00;;;10.60;99.90;;;;;;5005602;28;20034;-76
2023/03/23 03:04:36;;;;;;;29.00;16.23;;;10.60;99.90;;;;;;5007511;28;20512;-76
2023/03/23 03:07:08;;;;;;;22.02;15.50;;;10.60;99.90;;;;;;5006420;28;20030;-77
2023/03/23 03:09:46;;;;;;;22.75;16.48;;;10.60;99.90;;;;;;5006153;28;20534;-76
2023/03/23 03:12:19;;;;;;;21.92;15.65;;;10.60;99.90;;;;;;4987412;28;20044;-77
2023/03/23 03:14:58;;;;;;;23.80;16.33;;;10.60;99.90;;;;;;5005886;28;20445;-76
2023/03/23 03:17:27;;;;;;;24.23;16.63;;;10.60;99.90;;;;;;5001310;28;20375;-76
2023/03/23 03:19:58;;;;;;;23.95;16.75;;;10.60;99.90;;;;;;5017448;28;20466;-76
2023/03/23 03:22:28;;;;;;;25.27;17.30;;;10.60;99.90;;;;;;5005929;28;20057;-77
2023/03/23 03:24:59;;;;;;;23.55;17.15;;;10.60;99.90;;;;;;4990491;28;20049;-76
2023/03/23 03:27:26;;;;;;;22.58;16.77;;;10.60;99.90;;;;;;5006817;28;20097;-76
2023/03/23 03:29:59;;;;;;;21.67;15.18;;;10.60;99.90;;;;;;5006899;28;20148;-78
2023/03/23 03:32:32;;;;;;;27.13;17.25;;;10.60;99.90;;;;;;5004447;28;20045;-76
2023/03/23 03:35:03;;;;;;;22.70;15.88;;;10.60;99.90;;;;;;5008833;28;20034;-76
2023/03/23 03:37:36;;;;;;;22.90;17.20;;;10.60;99.90;;;;;;4988945;28;20053;-78
2023/03/23 03:40:11;;;;;;;24.90;15.73;;;10.60;99.90;;;;;;5008158;28;20037;-77
2023/03/23 03:42:41;;;;;;;24.67;16.20;;;10.60;99.90;;;;;;4989171;28;20026;-76
2023/03/23 03:45:09;;;;;;;23.27;16.35;;;10.60;99.90;;;;;;5005856;28;20041;-77
2023/03/23 03:47:35;;;;;;;22.67;15.90;;;10.60;99.90;;;;;;5005921;28;20036;-77
2023/03/23 03:50:00;;;;;;;24.42;15.85;;;10.70;99.90;;;;;;5006788;28;20037;-78
2023/03/23 03:52:27;;;;;;;22.63;14.73;;;10.70;99.90;;;;;;5002173;28;20040;-78
2023/03/23 03:54:53;;;;;;;20.10;14.20;;;10.70;99.90;;;;;;5008359;28;20025;-76
2023/03/23 03:57:19;;;;;;;21.27;14.82;;;10.80;99.90;;;;;;5006662;28;20030;-76
2023/03/23 03:59:45;;;;;;;19.25;14.32;;;10.80;99.90;;;;;;5008072;28;20032;-77
2023/03/23 04:02:14;;;;;;;17.73;13.68;;;10.80;99.90;;;;;;5012126;28;20410;-76
2023/03/23 04:04:41;;;;;;;22.52;13.63;;;10.80;99.90;;;;;;5013232;28;20095;-77
2023/03/23 04:07:10;;;;;;;17.30;12.30;;;10.90;99.90;;;;;;5007757;28;20053;-78
2023/03/23 04:09:38;;;;;;;24.08;13.75;;;10.80;99.90;;;;;;5002760;28;20044;-78
2023/03/23 04:12:04;;;;;;;20.42;14.13;;;10.80;99.90;;;;;;5005998;28;20038;-78
2023/03/23 04:14:30;;;;;;;21.77;14.57;;;10.90;99.90;;;;;;5004514;28;20087;-78
2023/03/23 04:16:56;;;;;;;20.92;14.70;;;10.80;99.90;;;;;;5006947;28;20038;-77
2023/03/23 04:19:23;;;;;;;22.80;14.25;;;10.80;99.90;;;;;;5004775;28;20057;-76
2023/03/23 04:21:50;;;;;;;19.10;14.88;;;10.80;99.90;;;;;;5009915;28;20396;-76
2023/03/23 04:24:16;;;;;;;23.33;14.45;;;10.80;99.90;;;;;;5009581;28;20506;-76
2023/03/23 04:26:42;;;;;;;16.33;12.43;;;10.80;99.90;;;;;;5011729;28;20030;-76
2023/03/23 04:29:12;;;;;;;19.40;12.63;;;10.80;99.90;;;;;;5009544;28;20080;-76
2023/03/23 04:31:39;;;;;;;18.85;14.18;;;10.80;99.90;;;;;;4992462;28;20034;-76
2023/03/23 04:34:05;;;;;;;20.52;15.45;;;10.80;99.90;;;;;;5004463;28;20056;-75
2023/03/23 04:36:33;;;;;;;23.50;14.80;;;10.80;99.90;;;;;;5011821;28;20489;-76
2023/03/23 04:39:00;;;;;;;17.83;12.35;;;10.80;99.90;;;;;;5008834;28;20053;-76
2023/03/23 04:41:26;;;;;;;20.88;14.52;;;10.80;99.90;;;;;;5036608;28;20030;-76
2023/03/23 04:43:54;;;;;;;21.08;14.45;;;10.80;99.90;;;;;;5008799;28;20029;-76
2023/03/23 04:46:21;;;;;;;17.75;14.27;;;10.70;99.90;;;;;;5010467;28;20034;-76
2023/03/23 04:48:47;;;;;;;17.85;13.00;;;10.70;99.90;;;;;;5010709;28;20029;-76
2023/03/23 04:51:12;;;;;;;20.55;14.13;;;10.80;99.90;;;;;;5010517;28;20087;-76
2023/03/23 04:53:38;;;;;;;21.17;13.50;;;10.80;99.90;;;;;;5008011;28;20038;-76
2023/03/23 04:56:04;;;;;;;18.48;13.18;;;10.80;99.90;;;;;;5011419;28;20167;-76
2023/03/23 04:58:33;;;;;;;20.48;13.73;;;10.80;99.90;;;;;;5010639;28;20524;-76
2023/03/23 05:01:04;;;;;;;19.83;13.35;;;10.80;99.90;;;;;;5008918;28;20129;-76
2023/03/23 05:03:29;;;;;;;19.75;14.57;;;11.00;99.90;;;;;;5008216;28;20482;-76
2023/03/23 05:05:55;;;;;;;16.27;13.57;;;10.90;99.90;;;;;;5011071;28;20041;-75
2023/03/23 05:08:23;;;;;;;19.77;15.05;;;10.90;99.90;;;;;;5011032;28;20034;-76
2023/03/23 05:10:53;;;;;;;16.80;12.68;;;10.90;99.90;;;;;;5006416;28;20041;-76
2023/03/23 05:13:19;;;;;;;20.58;14.45;;;10.90;99.90;;;;;;5007911;28;20088;-77
2023/03/23 05:15:45;;;;;;;18.80;13.65;;;10.90;99.90;;;;;;4989846;28;20029;-77
2023/03/23 05:18:10;;;;;;;15.93;12.50;;;10.90;99.90;;;;;;5008160;28;20450;-77
2023/03/23 05:20:41;;;;;;;18.52;14.60;;;10.90;99.90;;;;;;4991694;28;20030;-78
2023/03/23 05:23:08;;;;;;;16.15;13.45;;;10.90;99.90;;;;;;5006165;28;20025;-76
2023/03/23 05:25:39;;;;;;;18.30;12.70;;;10.90;99.90;;;;;;5008946;28;20033;-76
2023/03/23 05:28:07;;;;;;;15.52;11.35;;;10.90;99.90;;;;;;5032784;28;20037;-78
2023/03/23 05:30:35;;;;;;;19.25;12.15;;;11.00;99.90;;;;;;5006991;28;20026;-78
2023/03/23 05:33:01;;;;;;;17.50;11.35;;;11.00;99.90;;;;;;5009220;28;20038;-77
2023/03/23 05:35:27;;;;;;;14.57;10.80;;;10.90;99.90;;;;;;5004566;28;20147;-79
2023/03/23 05:37:53;;;;;;;17.27;11.18;;;11.00;99.90;;;;;;4990162;28;20029;-78
2023/03/23 05:40:20;;;;;;;15.20;11.85;;;11.00;99.90;;;;;;5005902;28;20030;-76
2023/03/23 05:42:47;;;;;;;16.55;10.70;;;11.00;99.90;;;;;;5007512;28;20040;-76
2023/03/23 05:45:13;;;;;;;16.25;13.10;;;11.00;99.90;;;;;;4990678;28;20026;-75
2023/03/23 05:47:40;;;;;;;13.02;9.88;;;10.90;99.90;;;;;;5012111;28;20547;-77
2023/03/23 05:50:09;;;;;;;16.17;11.02;;;10.90;99.90;;;;;;5007440;28;20544;-77
2023/03/23 05:52:36;;;;;;;13.38;9.60;;;10.90;99.90;;;;;;5005950;28;20054;-78
2023/03/23 05:55:03;;;;;;;14.52;10.77;;;10.90;99.90;;;;;;5021096;28;20061;-78
2023/03/23 05:57:29;;;;;;;13.70;9.93;;;10.80;99.90;;;;;;5009802;28;20505;-78
2023/03/23 05:59:57;;;;;;;16.05;9.75;;;10.90;99.90;;;;;;5006844;28;20061;-79
2023/03/23 06:02:24;;;;;;;18.10;10.95;;;10.80;99.90;;;;;;5007247;28;20029;-78
2023/03/23 06:04:57;;;;;;;14.25;9.27;;;10.80;99.90;;;;;;5006262;28;20030;-77
2023/03/23 06:07:24;;;;;;;13.00;9.70;;;10.80;99.90;;;;;;5008857;28;20482;-78
2023/03/23 06:09:52;;;;;;;12.57;8.07;;;10.80;99.90;;;;;;5005315;28;20033;-78
2023/03/23 06:12:20;;;;;;;13.73;8.57;;;10.80;99.90;;;;;;5017480;28;20063;-77
2023/03/23 06:14:46;;;;;;;14.90;9.95;;;10.80;99.90;;;;;;5006649;28;20057;-78
2023/03/23 06:17:13;;;;;;;16.42;9.75;;;10.80;99.90;;;;;;5004786;28;20029;-78
2023/03/23 06:19:38;;;;;;;12.98;9.07;;;10.70;99.90;;;;;;5010630;28;20107;-77
2023/03/23 06:22:05;;;;;;;13.52;8.73;;;10.70;99.90;;;;;;5006591;28;20029;-78
2023/03/23 06:24:32;;;;;;;13.90;8.88;;;10.70;99.90;;;;;;5005241;28;20101;-78
2023/03/23 06:26:59;;;;;;;16.60;9.50;;;10.70;99.90;;;;;;5006181;28;20032;-76
2023/03/23 06:29:25;;;;;;;13.88;8.82;;;10.70;99.90;;;;;;5003431;28;20026;-77
2023/03/23 06:31:55;;;;;;;13.57;8.75;;;10.70;99.90;;;;;;4993190;28;20119;-78
2023/03/23 06:34:21;;;;;;;11.38;7.68;;;10.70;99.90;;;;;;4988323;28;20026;-78
2023/03/23 06:36:47;;;;;;;13.57;7.65;;;10.80;99.90;;;;;;5004178;28;20049;-78
2023/03/23 06:39:13;;;;;;;11.73;8.43;;;10.80;99.90;;;;;;5007242;28;20068;-79
2023/03/23 06:41:40;;;;;;;11.43;7.55;;;10.80;99.90;;;;;;5005382;28;20029;-77
2023/03/23 06:44:06;;;;;;;15.48;7.75;;;10.90;99.90;;;;;;5003704;28;20084;-78
2023/03/23 06:46:32;;;;;;;10.40;7.47;;;10.90;99.90;;;;;;5009154;28;20025;-79
2023/03/23 06:48:58;;;;;;;10.93;7.20;;;10.90;99.90;;;;;;5029964;28;20093;-80
2023/03/23 06:51:24;;;;;;;13.77;7.25;;;11.00;99.90;;;;;;5002264;28;20592;-76
2023/03/23 06:53:50;;;;;;;10.73;6.78;;;11.10;99.90;;;;;;5002737;28;20034;-76
2023/03/23 06:56:16;;;;;;;9.93;6.22;;;11.10;99.90;;;;;;5007127;28;20030;-76
2023/03/23 06:58:42;;;;;;;12.35;7.57;;;11.10;99.90;;;;;;5031399;28;20525;-74
2023/03/23 07:01:09;;;;;;;8.30;6.32;;;11.10;99.90;;;;;;5005263;28;20069;-76
2023/03/23 07:03:36;;;;;;;13.35;6.82;;;11.20;99.90;;;;;;5009520;28;20030;-77
2023/03/23 07:06:03;;;;;;;8.85;5.65;;;11.20;99.90;;;;;;5007936;28;20422;-79
2023/03/23 07:08:30;;;;;;;9.13;5.80;;;11.30;99.90;;;;;;5003341;28;20517;-76
2023/03/23 07:10:56;;;;;;;9.18;5.45;;;11.30;99.90;;;;;;4986184;28;20084;-75
2023/03/23 07:13:23;;;;;;;10.30;6.25;;;11.40;99.90;;;;;;5004031;28;20025;-76
2023/03/23 07:15:49;;;;;;;6.93;5.07;;;11.40;99.90;;;;;;5029110;28;20037;-75
2023/03/23 07:18:15;;;;;;;9.10;6.15;;;11.50;99.90;;;;;;4997046;28;20456;-75
2023/03/23 07:20:40;;;;;;;7.28;5.20;;;11.60;99.90;;;;;;5004384;28;20030;-75
2023/03/23 07:23:06;;;;;;;8.18;4.63;;;11.60;99.90;;;;;;5007645;28;20066;-78
2023/03/23 07:25:34;;;;;;;12.43;5.15;;;11.60;99.90;;;;;;5007897;28;20030;-79
2023/03/23 07:28:01;;;;;;;8.38;5.05;;;11.70;99.90;;;;;;4992838;28;20037;-78
2023/03/23 07:30:29;;;;;;;9.80;4.72;;;11.70;99.90;;;;;;5011870;28;20026;-77
2023/03/23 07:32:55;;;;;;;12.10;4.70;;;11.70;99.90;;;;;;5006690;28;20517;-78
2023/03/23 07:35:21;;;;;;;8.55;4.50;;;11.90;99.90;;;;;;5006026;28;20121;-78
2023/03/23 07:37:48;;;;;;;8.35;4.35;;;11.90;99.90;;;;;;5007259;28;20105;-79
2023/03/23 07:40:16;;;;;;;7.82;4.40;;;12.00;99.90;;;;;;5002842;28;20018;-78
2023/03/23 07:42:43;;;;;;;7.47;4.15;;;12.20;99.90;;;;;;5034511;28;20049;-79
2023/03/23 07:45:13;;;;;;;4.95;3.63;;;12.30;99.90;;;;;;5006051;28;20108;-77
2023/03/23 07:47:40;;;;;;;7.47;4.10;;;12.30;99.90;;;;;;5006400;28;20034;-79
2023/03/23 07:50:06;;;;;;;8.27;4.47;;;12.30;99.90;;;;;;5007805;28;20042;-78
2023/03/23 07:52:33;;;;;;;6.43;4.65;;;12.20;99.90;;;;;;5006351;28;20116;-79
2023/03/23 07:55:01;;;;;;;7.50;5.00;;;12.10;99.90;;;;;;5014483;28;20037;-78
2023/03/23 07:57:28;;;;;;;6.68;4.75;;;12.00;99.90;;;;;;5001622;28;20405;-75
2023/03/23 07:59:55;;;;;;;8.90;4.35;;;11.90;99.90;;;;;;5007019;28;20125;-78
2023/03/23 08:02:21;;;;;;;6.93;4.80;;;11.90;99.90;;;;;;5005463;28;20022;-79
2023/03/23 08:04:47;;;;;;;8.45;5.10;;;11.90;99.90;;;;;;5008589;28;20117;-79
2023/03/23 08:07:13;;;;;;;6.80;5.53;;;12.00;99.90;;;;;;5005997;28;20412;-75
2023/03/23 08:09:39;;;;;;;5.85;4.88;;;12.00;99.90;;;;;;5006883;28;20034;-75
2023/03/23 08:12:05;;;;;;;6.63;5.38;;;11.90;99.90;;;;;;4988851;28;20088;-76
2023/03/23 08:14:32;;;;;;;6.07;5.30;;;11.90;99.90;;;;;;5002982;28;20524;-80
2023/03/23 08:16:58;;;;;;;12.13;6.10;;;11.80;99.90;;;;;;5004778;28;20032;-82
2023/03/23 08:19:24;;;;;;;6.65;5.78;;;11.80;99.90;;;;;;5011792;28;20133;-79
2023/03/23 08:21:50;;;;;;;6.45;5.78;;;11.80;99.90;;;;;;4992849;28;20639;-80
2023/03/23 08:24:16;;;;;;;8.43;5.47;;;11.80;99.90;;;;;;4989496;28;20501;-76
2023/03/23 08:26:41;;;;;;;9.65;6.18;;;11.80;99.90;;;;;;5010487;28;20041;-75
2023/03/23 08:29:08;;;;;;;14.93;6.97;;;11.70;99.90;;;;;;5007862;28;20037;-76
2023/03/23 08:31:35;;;;;;;7.38;4.82;;;11.70;99.90;;;;;;5007075;28;20077;-76
2023/03/23 08:34:04;;;;;;;6.95;4.25;;;11.50;99.90;;;;;;5009275;28;20394;-76
2023/03/23 08:36:31;;;;;;;9.25;4.88;;;11.20;99.90;;;;;;5032318;28;20451;-76
2023/03/23 08:38:58;;;;;;;4.78;3.90;;;11.10;99.90;;;;;;5017100;28;20029;-75
2023/03/23 08:41:24;;;;;;;6.00;4.00;;;10.90;99.90;;;;;;5004110;28;20026;-76
2023/03/23 08:43:50;;;;;;;7.15;4.43;;;10.90;99.90;;;;;;4984247;28;20033;-76
2023/03/23 08:46:18;;;;;;;7.20;3.60;;;10.80;99.90;;;;;;5006373;28;20083;-76
2023/03/23 08:48:43;;;;;;;5.97;3.10;;;10.90;99.90;;;;;;5003912;28;20033;-76
2023/03/23 08:51:10;;;;;;;5.75;2.90;;;10.90;99.90;;;;;;5002859;28;20026;-75
2023/03/23 08:53:36;;;;;;;6.80;3.25;;;11.00;99.90;;;;;;5008079;28;20038;-77
2023/03/23 08:56:10;;;;;;;9.55;4.53;;;11.00;99.90;;;;;;5008317;28;20030;-77
2023/03/23 08:58:38;;;;;;;9.27;4.13;;;11.10;99.90;;;;;;5005863;28;21670;-77
2023/03/23 09:01:06;;;;;;;8.00;3.63;;;11.10;99.90;;;;;;5010197;28;20332;-77
2023/03/23 09:03:35;;;;;;;7.32;3.97;;;11.10;99.90;;;;;;5011972;28;20046;-77
2023/03/23 09:06:03;;;;;;;8.77;3.75;;;11.20;99.90;;;;;;5010933;28;20334;-77
2023/03/23 09:08:30;;;;;;;7.53;3.72;;;11.20;99.90;;;;;;4995495;28;20030;-77
2023/03/23 09:10:59;;;;;;;8.27;3.45;;;11.30;99.90;;;;;;5027499;28;20030;-77
2023/03/23 09:13:25;;;;;;;10.27;3.97;;;11.30;99.90;;;;;;5019150;28;20025;-77
2023/03/23 09:15:51;;;;;;;9.70;4.45;;;11.40;99.90;;;;;;5014222;28;20037;-77
2023/03/23 09:18:18;;;;;;;8.77;3.05;;;11.50;99.90;;;;;;5014535;28;20114;-78
2023/03/23 09:20:45;;;;;;;12.25;3.67;;;11.40;99.90;;;;;;5021282;28;20034;-77
2023/03/23 09:23:12;;;;;;;11.45;3.05;;;11.40;99.90;;;;;;5014207;28;20025;-77
2023/03/23 09:25:39;;;;;;;11.93;3.08;;;11.30;99.90;;;;;;5013788;28;20632;-78
2023/03/23 09:28:05;;;;;;;13.57;3.00;;;11.30;99.90;;;;;;5012298;28;20112;-76
2023/03/23 09:30:33;;;;;;;10.80;2.80;;;11.20;99.90;;;;;;4993045;28;20034;-77
2023/03/23 09:33:03;;;;;;;8.88;2.50;;;11.30;99.90;;;;;;5011860;28;20041;-78
2023/03/23 09:35:31;;;;;;;12.82;2.85;;;11.30;99.90;;;;;;5041201;28;20029;-82
2023/03/23 09:38:00;;;;;;;11.80;3.00;;;11.20;99.90;;;;;;5031468;28;20042;-80
2023/03/23 09:40:46;;;;;;;10.38;2.80;;;11.20;99.90;;;;;;5034249;28;20034;-83
2023/03/23 09:43:22;;;;;;;14.60;2.75;;;11.30;99.90;;;;;;5000466;28;20081;-78
2023/03/23 09:46:03;;;;;;;19.85;3.45;;;11.40;99.90;;;;;;5015899;28;20022;-81
2023/03/23 09:48:41;;;;;;;8.00;2.17;;;11.50;99.90;;;;;;5013514;28;20025;-78
2023/03/23 09:51:37;;;;;;;17.88;5.10;;;11.40;99.90;;;;;;5025022;28;20103;-81
2023/03/23 09:54:28;;;;;;;10.00;2.95;;;11.50;99.90;;;;;;5011672;28;20033;-78
2023/03/23 09:56:55;;;;;;;;;;;11.50;99.90;;;;;;5021725;28;20052;-82
2023/03/23 09:59:32;;;;;;;13.07;3.05;;;11.60;99.90;;;;;;5022228;28;19935;-80
2023/03/23 10:02:10;;;;;;;12.32;2.25;;;11.70;99.90;;;;;;4999877;28;20076;-78
2023/03/23 10:04:48;;;;;;;13.15;2.03;;;11.90;99.90;;;;;;5020627;28;20117;-78
2023/03/23 10:07:23;;;;;;;12.38;2.72;;;12.10;99.90;;;;;;5014182;28;20501;-80
2023/03/23 10:09:55;;;;;;;16.40;2.38;;;12.20;99.90;;;;;;5014694;28;20477;-77
2023/03/23 10:12:39;;;;;;;14.93;2.50;;;12.20;99.90;;;;;;5013857;28;20030;-77
2023/03/23 10:15:30;;;;;;;11.18;2.60;;;12.30;99.90;;;;;;5009654;28;20037;-77
2023/03/23 10:17:59;;;;;;;10.10;2.67;;;12.20;99.90;;;;;;5016374;28;20038;-80
2023/03/23 10:20:32;;;;;;;9.27;2.67;;;12.30;99.90;;;;;;5015107;28;20101;-77
2023/03/23 10:23:14;;;;;;;10.57;3.38;;;12.30;99.90;;;;;;5013276;28;20507;-77
2023/03/23 10:25:46;;;;;;;10.55;2.58;;;12.40;99.90;;;;;;5015979;28;20030;-80
2023/03/23 10:28:34;;;;;;;11.23;2.47;;;12.50;99.90;;;;;;5020419;28;20073;-77
2023/03/23 10:31:01;;;;;;;9.88;2.55;;;12.70;99.90;;;;;;5010920;28;20537;-78
2023/03/23 10:33:34;;;;;;;12.60;2.55;;;12.80;99.90;;;;;;5014485;28;20040;-81
2023/03/23 10:36:31;;;;;;;10.45;2.53;;;12.80;99.90;;;;;;5001958;28;20528;-79
2023/03/23 10:39:01;;;;;;;10.05;2.25;;;13.10;99.90;;;;;;5016981;28;20516;-79
2023/03/23 10:41:27;;;;;;;11.48;2.60;;;13.30;99.90;;;;;;5027773;28;20030;-81
2023/03/23 10:43:54;;;;;;;12.32;3.20;;;13.40;99.90;;;;;;5023968;28;20115;-81
2023/03/23 10:46:58;;;;;;;9.95;2.25;;;13.50;99.90;;;;;;5018980;28;20040;-80
2023/03/23 10:49:28;;;;;;;9.73;2.45;;;13.30;99.90;;;;;;4988511;28;20026;-80
2023/03/23 10:52:17;;;;;;;9.20;2.75;;;13.20;99.90;;;;;;5017268;28;20034;-80
2023/03/23 10:55:03;;;;;;;11.05;2.50;;;13.10;99.90;;;;;;5030260;28;20087;-80
2023/03/23 10:57:33;;;;;;;12.52;3.28;;;13.00;99.90;;;;;;5019051;28;20029;-79
2023/03/23 11:00:14;;;;;;;11.55;3.20;;;13.00;99.90;;;;;;5014676;28;20496;-79
2023/03/23 11:02:47;;;;;;;12.60;2.75;;;13.00;99.90;;;;;;5036528;28;20405;-80
2023/03/23 11:05:26;;;;;;;9.48;2.70;;;13.00;99.90;;;;;;5013532;28;20260;-76
2023/03/23 11:07:57;;;;;;;20.08;3.40;;;13.00;99.90;;;;;;5015539;28;20402;-77
2023/03/23 11:10:35;;;;;;;17.45;2.80;;;13.10;99.90;;;;;;5010918;28;20032;-80
2023/03/23 11:13:01;;;;;;;14.18;3.35;;;13.20;99.90;;;;;;5038945;28;20034;-77
2023/03/23 11:15:41;;;;;;;15.23;2.58;;;13.30;99.90;;;;;;5020519;28;20044;-79
2023/03/23 11:18:11;;;;;;;12.38;2.70;;;13.40;99.90;;;;;;5016226;28;20052;-79
2023/03/23 11:20:44;;;;;;;16.17;3.95;;;13.50;99.90;;;;;;5014708;28;20034;-80
2023/03/23 11:23:20;;;;;;;9.73;2.10;;;13.40;99.90;;;;;;5016038;28;20026;-77
2023/03/23 11:26:20;;;;;;;11.68;2.38;;;13.30;99.90;;;;;;5022973;28;20030;-80
2023/03/23 11:28:59;;;;;;;15.82;3.15;;;13.20;99.90;;;;;;5040519;28;20060;-80
2023/03/23 11:31:38;;;;;;;8.40;2.63;;;13.20;99.90;;;;;;5010398;28;20227;-77
2023/03/23 11:34:24;;;;;;;12.13;2.78;;;13.10;99.90;;;;;;5016320;28;20085;-77
2023/03/23 11:36:58;;;;;;;10.75;2.95;;;13.10;99.90;;;;;;5028320;28;20018;-79
2023/03/23 11:39:34;;;;;;;12.05;2.60;;;13.30;99.90;;;;;;5001340;28;20030;-80
2023/03/23 11:42:12;;;;;;;11.38;3.10;;;13.30;99.90;;;;;;5016849;28;20049;-77
2023/03/23 11:44:44;;;;;;;15.02;3.35;;;13.20;99.90;;;;;;5015210;28;20061;-77
2023/03/23 11:47:40;;;;;;;16.13;3.70;;;13.00;99.90;;;;;;5016531;28;20026;-80
2023/03/23 11:50:14;;;;;;;12.98;3.90;;;13.00;99.90;;;;;;5013755;28;20413;-78
2023/03/23 11:52:42;;;;;;;13.52;3.70;;;13.00;99.90;;;;;;5012270;28;20434;-77
2023/03/23 11:55:17;;;;;;;14.00;3.55;;;13.10;99.90;;;;;;5009387;28;20393;-80
2023/03/23 11:57:43;;;;;;;12.18;3.38;;;13.10;99.90;;;;;;4993249;28;20030;-77
2023/03/23 12:00:25;;;;;;;12.23;3.30;;;13.10;99.90;;;;;;5013607;28;20562;-80
2023/03/23 12:03:13;;;;;;;13.73;3.08;;;13.00;99.90;;;;;;4994800;28;20057;-77
2023/03/23 12:06:03;;;;;;;11.88;3.90;;;12.90;99.90;;;;;;5011183;28;20040;-80
2023/03/23 12:09:06;;;;;;;12.30;3.58;;;12.90;99.90;;;;;;5010639;28;20041;-77
2023/03/23 12:12:01;;;;;;;13.45;3.30;;;12.90;99.90;;;;;;4991909;28;20544;-77
2023/03/23 12:14:40;;;;;;;13.85;3.08;;;12.90;99.90;;;;;;5012906;28;20410;-77
2023/03/23 12:17:15;;;;;;;14.43;3.90;;;12.90;99.90;;;;;;5012970;28;20192;-78
2023/03/23 12:19:58;;;;;;;11.07;3.92;;;12.80;99.90;;;;;;5012246;28;20109;-80
2023/03/23 12:22:36;;;;;;;12.55;4.13;;;12.70;99.90;;;;;;5052704;28;20022;-77
2023/03/23 12:25:24;;;;;;;12.30;4.35;;;12.70;99.90;;;;;;4999652;28;20083;-79
2023/03/23 12:27:52;;;;;;;11.75;4.40;;;12.70;99.90;;;;;;5011042;28;20026;-80
2023/03/23 12:30:21;;;;;;;12.63;3.97;;;12.60;99.90;;;;;;4994455;28;20041;-79
2023/03/23 12:33:08;;;;;;;11.20;3.70;;;12.50;99.90;;;;;;5016040;28;20030;-81
2023/03/23 12:35:49;;;;;;;8.90;4.05;;;12.50;99.90;;;;;;5017215;28;20353;-77
2023/03/23 12:38:27;;;;;;;;;;;12.50;99.90;;;;;;5016365;28;20030;-80
2023/03/23 12:41:13;;;;;;;11.70;3.90;;;12.50;99.90;;;;;;5014478;28;19947;-77
2023/03/23 12:43:51;;;;;;;15.13;3.95;;;12.40;99.90;;;;;;5022047;28;20125;-80
2023/03/23 12:46:35;;;;;;;16.70;4.95;;;12.30;99.90;;;;;;5030557;28;20018;-81
2023/03/23 12:49:30;;;;;;;15.95;4.28;;;12.40;99.90;;;;;;5065168;28;20362;-81
2023/03/23 12:52:06;;;;;;;13.73;4.30;;;12.60;99.90;;;;;;5011474;28;20034;-77
2023/03/23 12:54:39;;;;;;;17.85;5.25;;;12.70;99.90;;;;;;5014686;28;20460;-77